This is the latest recevied weather packets stored in our database for station/object K6CRS-15. If no packets are shown the sender has not sent any weather packets the latest 10 day(s).
| Time | Temp. | Humidity | Pressure | Rain* | Wind** | Luminosity | Snow |
|---|---|---|---|---|---|---|---|
| 1777628755 | 11.67° C | 87% | 1012.7 hPa | 0 mm | - | - | - |
| 1777627845 | 11.67° C | 86% | 1012.8 hPa | 0 mm | - | - | - |
| 1777626946 | 12.22° C | 85% | 1012.9 hPa | 0 mm | - | - | - |
| 1777623351 | 12.78° C | 85% | 1013.2 hPa | 0 mm | - | - | - |
| 1777619745 | 13.33° C | 83% | 1012.9 hPa | 0 mm | - | - | - |
| 1777613443 | 14.44° C | 80% | 1012.4 hPa | 0 mm | - | - | - |
| 1777607144 | 16.11° C | 74% | 1011.4 hPa | 0 mm | - | - | - |
| 1777599952 | 18.89° C | 66% | 1010.5 hPa | 0 mm | - | - | - |
| 1777599046 | 18.89° C | 66% | 1010.7 hPa | 0 mm | - | - | - |
| 1777598153 | 19.44° C | 64% | 1010.6 hPa | 0 mm | - | - | - |
| 1777592758 | 21.11° C | 57% | 1010.3 hPa | 0 mm | - | - | - |
| 1777586452 | 22.22° C | 57% | 1010.3 hPa | 0 mm | - | - | - |
| 1777584646 | 22.22° C | 56% | 1010.9 hPa | 0 mm | - | - | - |
| 1777581959 | 22.78° C | 57% | 1011 hPa | 0 mm | - | - | - |
| 1777580149 | 22.22° C | 56% | 1011 hPa | 0 mm | - | - | - |
| 1777579248 | 22.22° C | 55% | 1011.1 hPa | 0 mm | - | - | - |
| 1777576552 | 22.22° C | 51% | 1011.4 hPa | 0 mm | - | - | - |
| 1777573845 | 21.11° C | 51% | 1011.8 hPa | 0 mm | - | - | - |
| 1777567544 | 17.78° C | 60% | 1012.6 hPa | 0 mm | - | - | - |
| 1777564845 | 16.67° C | 65% | 1012.7 hPa | 0 mm | - | - | - |
| 1777563040 | 16.11° C | 68% | 1012.9 hPa | 0 mm | - | - | - |
| 1777562158 | 15.56° C | 70% | 1012.8 hPa | 0 mm | - | - | - |
| 1777561248 | 15° C | 73% | 1012.8 hPa | 0 mm | - | - | - |
| 1777559447 | 13.89° C | 75% | 1012.7 hPa | 0 mm | - | - | - |
| 1777554943 | 9.44° C | 83% | 1012.5 hPa | 0 mm | - | - | - |
* Rain latest hour (hover to see other rain measurements)
** Current wind speed in m/s (hover to see current wind gust speed)